Time;durP1;ratioP1;P1;durP2;ratioP2;P2;SDS_P1;SDS_P2;PMS_P1;PMS_P2;Temp;Humidity;BMP_temperature;BMP_pressure;BME280_temperature;BME280_humidity;BME280_pressure;Samples;Min_cycle;Max_cycle;Signal;HPM_P1;HPM_P2
2021/10/09 00:01:28;;;;;;;9.95;6.50;;;;;;;;;;5116334;28;20038;-61
2021/10/09 00:03:53;;;;;;;11.30;7.07;;;;;;;;;;5116290;28;20463;-61
2021/10/09 00:06:19;;;;;;;12.38;7.20;;;;;;;;;;5116472;28;20050;-61
2021/10/09 00:08:45;;;;;;;12.43;6.40;;;;;;;;;;5116067;28;20024;-61
2021/10/09 00:11:19;;;;;;;10.02;6.38;;;;;;;;;;5098202;28;20046;-61
2021/10/09 00:13:46;;;;;;;10.43;6.20;;;;;;;;;;5116197;28;20040;-62
2021/10/09 00:16:12;;;;;;;9.73;6.20;;;;;;;;;;5097781;28;20028;-62
2021/10/09 00:18:38;;;;;;;9.15;6.30;;;;;;;;;;5116067;28;20051;-62
2021/10/09 00:21:04;;;;;;;11.52;6.97;;;;;;;;;;5115854;28;20460;-61
2021/10/09 00:23:29;;;;;;;10.65;6.53;;;;;;;;;;5115868;28;20448;-62
2021/10/09 00:25:56;;;;;;;9.80;6.72;;;;;;;;;;5115916;28;20019;-61
2021/10/09 00:28:21;;;;;;;11.07;6.65;;;;;;;;;;5116156;28;20502;-61
2021/10/09 00:30:47;;;;;;;8.90;6.13;;;;;;;;;;5115211;28;20059;-61
2021/10/09 00:33:12;;;;;;;18.92;6.70;;;;;;;;;;5115603;28;20030;-63
2021/10/09 00:35:38;;;;;;;10.75;6.15;;;;;;;;;;5115838;28;20043;-62
2021/10/09 00:38:04;;;;;;;11.80;6.65;;;;;;;;;;5115348;28;20039;-61
2021/10/09 00:40:30;;;;;;;8.05;6.35;;;;;;;;;;5115614;28;20028;-61
2021/10/09 00:42:56;;;;;;;8.95;6.63;;;;;;;;;;5114677;28;20096;-63
2021/10/09 00:45:21;;;;;;;10.00;6.40;;;;;;;;;;5115661;28;20027;-63
2021/10/09 00:47:47;;;;;;;10.35;6.90;;;;;;;;;;5097182;28;20031;-63
2021/10/09 00:50:12;;;;;;;7.68;6.13;;;;;;;;;;5115757;28;20036;-62
2021/10/09 00:52:40;;;;;;;8.85;6.15;;;;;;;;;;5097338;28;20051;-62
2021/10/09 00:55:06;;;;;;;8.48;6.20;;;;;;;;;;5115357;28;20084;-62
2021/10/09 00:57:34;;;;;;;12.90;7.28;;;;;;;;;;5097187;28;20027;-62
2021/10/09 01:00:00;;;;;;;9.88;6.25;;;;;;;;;;5097150;28;20023;-62
2021/10/09 01:02:26;;;;;;;8.18;6.07;;;;;;;;;;5097362;28;20040;-62
2021/10/09 01:04:52;;;;;;;11.85;6.60;;;;;;;;;;5115246;28;20038;-63
2021/10/09 01:07:17;;;;;;;9.88;6.47;;;;;;;;;;5096937;28;20046;-63
2021/10/09 01:09:45;;;;;;;12.80;6.95;;;;;;;;;;5097048;28;20088;-63
2021/10/09 01:12:14;;;;;;;9.63;6.60;;;;;;;;;;5096803;28;20122;-64
2021/10/09 01:14:39;;;;;;;7.75;6.40;;;;;;;;;;5096568;28;20024;-64
2021/10/09 01:17:05;;;;;;;10.85;6.85;;;;;;;;;;5114602;28;20097;-62
2021/10/09 01:19:31;;;;;;;7.60;5.97;;;;;;;;;;5096363;28;20084;-62
2021/10/09 01:21:56;;;;;;;7.60;6.28;;;;;;;;;;5096375;28;20042;-63
2021/10/09 01:24:26;;;;;;;10.80;7.18;;;;;;;;;;5096640;28;20417;-63
2021/10/09 01:26:53;;;;;;;9.43;6.40;;;;;;;;;;5096457;28;20036;-63
2021/10/09 01:29:23;;;;;;;12.75;6.75;;;;;;;;;;5095932;28;20031;-63
2021/10/09 01:31:51;;;;;;;10.10;6.35;;;;;;;;;;5096573;28;20054;-62
2021/10/09 01:34:22;;;;;;;9.32;6.63;;;;;;;;;;5114751;28;20036;-62
2021/10/09 01:36:50;;;;;;;10.52;6.70;;;;;;;;;;5096431;28;20080;-62
2021/10/09 01:39:17;;;;;;;11.82;6.68;;;;;;;;;;5096542;28;20028;-62
2021/10/09 01:41:49;;;;;;;10.57;6.68;;;;;;;;;;5114602;28;20039;-62
2021/10/09 01:44:16;;;;;;;8.75;7.00;;;;;;;;;;5114129;28;20063;-62
2021/10/09 01:46:42;;;;;;;10.32;7.18;;;;;;;;;;5096054;28;20375;-62
2021/10/09 01:49:09;;;;;;;9.60;6.70;;;;;;;;;;5114221;28;20348;-62
2021/10/09 01:51:35;;;;;;;10.90;7.65;;;;;;;;;;5095843;28;20031;-62
2021/10/09 01:54:02;;;;;;;13.75;8.10;;;;;;;;;;5095641;28;20041;-62
2021/10/09 01:56:28;;;;;;;43.85;36.45;;;;;;;;;;5096041;28;20359;-62
2021/10/09 01:58:55;;;;;;;148.30;70.95;;;;;;;;;;5095692;28;20499;-62
2021/10/09 02:01:29;;;;;;;107.82;43.47;;;;;;;;;;5095688;28;20032;-62
2021/10/09 02:03:55;;;;;;;59.03;37.38;;;;;;;;;;5095849;28;20058;-62
2021/10/09 02:06:21;;;;;;;206.73;92.63;;;;;;;;;;5095728;28;20027;-63
2021/10/09 02:08:49;;;;;;;60.47;38.53;;;;;;;;;;5079104;28;20085;-62
2021/10/09 02:11:20;;;;;;;62.10;48.78;;;;;;;;;;5114113;28;20023;-62
2021/10/09 02:27:22;;;;;;;22.25;14.15;;;;;;;;;;5095610;28;20479;-63
2021/10/09 02:29:48;;;;;;;42.65;22.70;;;;;;;;;;5095203;28;20039;-62
2021/10/09 02:32:13;;;;;;;51.17;26.63;;;;;;;;;;5095631;28;20588;-63
2021/10/09 02:34:39;;;;;;;54.70;27.75;;;;;;;;;;5095262;28;20032;-63
2021/10/09 02:37:04;;;;;;;28.33;16.33;;;;;;;;;;5095365;28;20016;-62
2021/10/09 02:39:34;;;;;;;37.08;18.02;;;;;;;;;;5095755;28;20384;-62
2021/10/09 02:41:59;;;;;;;32.60;18.45;;;;;;;;;;5095450;28;20081;-62
2021/10/09 02:44:25;;;;;;;26.23;14.60;;;;;;;;;;5095517;28;20062;-62
2021/10/09 02:46:50;;;;;;;14.20;10.15;;;;;;;;;;5095323;28;20513;-61
2021/10/09 02:49:17;;;;;;;14.60;9.25;;;;;;;;;;5095423;28;20039;-62
2021/10/09 02:51:44;;;;;;;36.78;17.38;;;;;;;;;;5095270;28;20024;-62
2021/10/09 02:54:09;;;;;;;13.55;10.50;;;;;;;;;;5095391;28;20043;-61
2021/10/09 02:56:35;;;;;;;45.40;20.38;;;;;;;;;;5095281;28;20024;-62
2021/10/09 02:59:03;;;;;;;136.60;68.20;;;;;;;;;;5095163;28;20036;-62
2021/10/09 03:01:29;;;;;;;16.63;10.63;;;;;;;;;;5095696;28;20019;-61
2021/10/09 03:03:55;;;;;;;17.33;10.48;;;;;;;;;;5094849;28;20093;-61
2021/10/09 03:06:20;;;;;;;39.67;19.75;;;;;;;;;;5096773;28;20059;-61
2021/10/09 03:08:48;;;;;;;14.15;8.90;;;;;;;;;;5099330;28;20551;-61
2021/10/09 03:11:13;;;;;;;32.20;13.95;;;;;;;;;;5099086;28;20028;-61
2021/10/09 03:13:41;;;;;;;15.55;8.95;;;;;;;;;;5098739;28;20035;-61
2021/10/09 03:16:07;;;;;;;34.70;19.15;;;;;;;;;;5098941;28;20356;-61
2021/10/09 03:18:32;;;;;;;13.90;9.02;;;;;;;;;;5098916;28;20148;-61
2021/10/09 03:20:58;;;;;;;13.60;8.30;;;;;;;;;;5098858;28;20035;-61
2021/10/09 03:23:24;;;;;;;28.55;15.80;;;;;;;;;;5098770;28;20031;-61
2021/10/09 03:25:49;;;;;;;18.63;10.75;;;;;;;;;;5098601;28;20030;-61
2021/10/09 03:28:18;;;;;;;16.73;11.45;;;;;;;;;;5082246;28;20042;-61
2021/10/09 03:30:44;;;;;;;19.45;11.98;;;;;;;;;;5116341;28;20406;-61
2021/10/09 03:33:09;;;;;;;13.40;7.90;;;;;;;;;;5098692;28;20387;-61
2021/10/09 03:35:35;;;;;;;28.35;13.98;;;;;;;;;;5098440;28;20023;-61
2021/10/09 03:38:01;;;;;;;25.10;13.45;;;;;;;;;;5116771;28;20036;-61
2021/10/09 03:40:28;;;;;;;11.20;7.47;;;;;;;;;;5098502;28;20082;-61
2021/10/09 03:42:57;;;;;;;25.85;15.88;;;;;;;;;;5116567;28;20046;-61
2021/10/09 03:53:03;;;;;;;13.48;8.60;;;;;;;;;;5098035;28;20035;-61
2021/10/09 03:55:29;;;;;;;12.27;9.02;;;;;;;;;;5098112;28;20027;-61
2021/10/09 03:57:55;;;;;;;28.00;14.90;;;;;;;;;;5097868;28;20087;-61
2021/10/09 04:00:22;;;;;;;15.63;8.13;;;;;;;;;;5098079;28;20445;-61
2021/10/09 04:02:56;;;;;;;12.48;7.22;;;;;;;;;;5097751;28;20032;-61
2021/10/09 04:05:21;;;;;;;11.55;8.45;;;;;;;;;;5116159;28;20080;-61
2021/10/09 04:07:50;;;;;;;9.57;7.90;;;;;;;;;;5098077;28;20047;-61
2021/10/09 04:10:18;;;;;;;12.65;7.57;;;;;;;;;;5097928;28;20451;-61
2021/10/09 04:12:44;;;;;;;9.90;7.18;;;;;;;;;;5097741;28;20054;-62
2021/10/09 04:15:09;;;;;;;13.10;9.48;;;;;;;;;;5097854;28;20067;-62
2021/10/09 04:17:36;;;;;;;10.50;7.53;;;;;;;;;;5097745;28;20027;-62
2021/10/09 04:20:04;;;;;;;11.15;7.82;;;;;;;;;;5097937;28;20040;-62
2021/10/09 04:22:30;;;;;;;13.75;9.00;;;;;;;;;;5097686;28;20108;-62
2021/10/09 04:24:56;;;;;;;14.07;9.23;;;;;;;;;;5097827;28;20035;-62
2021/10/09 04:27:22;;;;;;;9.10;6.75;;;;;;;;;;5097875;28;20471;-62
2021/10/09 04:29:48;;;;;;;10.35;7.68;;;;;;;;;;5097013;28;20046;-62
2021/10/09 04:32:14;;;;;;;9.75;6.93;;;;;;;;;;5116054;28;20040;-62
2021/10/09 04:34:40;;;;;;;9.63;7.70;;;;;;;;;;5097552;28;20472;-61
2021/10/09 04:37:06;;;;;;;11.98;7.53;;;;;;;;;;5115819;28;20027;-61
2021/10/09 04:39:32;;;;;;;13.10;8.35;;;;;;;;;;5097390;28;20080;-62
2021/10/09 04:42:01;;;;;;;16.92;9.80;;;;;;;;;;5097408;28;20038;-62
2021/10/09 04:44:27;;;;;;;9.55;6.88;;;;;;;;;;5097059;28;20062;-63
2021/10/09 04:46:53;;;;;;;10.25;7.07;;;;;;;;;;5097343;28;20370;-62
2021/10/09 04:49:20;;;;;;;9.38;6.63;;;;;;;;;;5097093;28;20036;-62
2021/10/09 04:51:46;;;;;;;22.15;10.60;;;;;;;;;;5097128;28;20517;-62
2021/10/09 04:54:12;;;;;;;13.35;7.80;;;;;;;;;;5096582;28;20035;-62
2021/10/09 04:56:38;;;;;;;10.13;7.07;;;;;;;;;;5096971;28;20024;-62
2021/10/09 04:59:05;;;;;;;22.48;13.57;;;;;;;;;;5097136;28;20043;-63
2021/10/09 05:01:31;;;;;;;15.38;9.10;;;;;;;;;;5097191;28;20027;-63
2021/10/09 05:03:57;;;;;;;14.13;8.70;;;;;;;;;;5096765;28;20028;-62
2021/10/09 05:06:23;;;;;;;33.20;15.98;;;;;;;;;;5097131;28;20032;-63
2021/10/09 05:08:49;;;;;;;13.18;8.10;;;;;;;;;;5096774;28;20040;-62
2021/10/09 05:11:19;;;;;;;19.05;10.68;;;;;;;;;;5115154;28;20118;-63
2021/10/09 05:13:46;;;;;;;87.53;34.25;;;;;;;;;;5096776;28;20031;-67
2021/10/09 05:16:13;;;;;;;54.50;24.52;;;;;;;;;;5096369;28;20032;-62
2021/10/09 05:18:40;;;;;;;54.60;26.80;;;;;;;;;;5096545;28;20375;-62
2021/10/09 05:21:10;;;;;;;64.88;25.58;;;;;;;;;;5095588;28;20088;-62
2021/10/09 05:23:37;;;;;;;;;;;;;;;;;;5095830;28;20031;-62
2021/10/09 05:26:03;;;;;;;95.35;33.20;;;;;;;;;;5095420;28;19904;-62
2021/10/09 05:28:42;;;;;;;22.98;11.35;;;;;;;;;;5094713;28;20036;-62
2021/10/09 05:31:12;;;;;;;125.15;34.40;;;;;;;;;;5095278;28;20039;-62
2021/10/09 05:33:42;;;;;;;;;;;;;;;;;;5096067;28;20031;-62
2021/10/09 05:36:08;;;;;;;218.00;68.28;;;;;;;;;;5095797;28;20007;-62
2021/10/09 05:38:35;;;;;;;105.95;41.88;;;;;;;;;;5095619;28;20019;-62
2021/10/09 05:41:01;;;;;;;62.38;38.85;;;;;;;;;;5114086;28;20486;-61
2021/10/09 05:43:32;;;;;;;55.22;22.45;;;;;;;;;;5095868;28;20036;-62
2021/10/09 05:45:58;;;;;;;115.75;45.17;;;;;;;;;;5095850;28;20031;-62
2021/10/09 05:48:25;;;;;;;40.28;19.23;;;;;;;;;;5095784;28;20032;-62
2021/10/09 07:00:20;;;;;;;17.40;11.05;;;;;;;;;;5112849;28;20667;-62
2021/10/09 07:02:48;;;;;;;15.55;8.73;;;;;;;;;;5113452;28;20035;-62
2021/10/09 07:05:17;;;;;;;51.42;29.63;;;;;;;;;;5114679;28;20036;-62
2021/10/09 07:08:19;;;;;;;23.38;14.10;;;;;;;;;;5111741;28;20027;-62
2021/10/09 07:11:08;;;;;;;24.73;17.77;;;;;;;;;;5111694;28;20059;-62
2021/10/09 07:13:34;;;;;;;21.48;12.00;;;;;;;;;;5112580;28;20036;-62
2021/10/09 07:15:59;;;;;;;17.45;13.32;;;;;;;;;;5113231;28;20764;-62
2021/10/09 07:18:30;;;;;;;21.45;10.93;;;;;;;;;;5093730;28;20032;-62
2021/10/09 07:20:56;;;;;;;18.67;8.82;;;;;;;;;;5109752;28;20494;-62
2021/10/09 07:23:22;;;;;;;16.48;9.15;;;;;;;;;;5111335;28;20026;-62
2021/10/09 07:25:48;;;;;;;14.05;9.25;;;;;;;;;;5112678;28;20483;-62
2021/10/09 07:28:14;;;;;;;56.88;23.70;;;;;;;;;;5113757;28;20118;-62
2021/10/09 07:30:40;;;;;;;75.70;31.27;;;;;;;;;;5113400;28;20040;-62
2021/10/09 07:33:06;;;;;;;33.33;16.83;;;;;;;;;;5114593;28;20415;-62
2021/10/09 07:35:32;;;;;;;20.20;11.85;;;;;;;;;;5113953;28;20035;-62
2021/10/09 07:37:58;;;;;;;34.83;16.20;;;;;;;;;;5113880;28;20035;-62
2021/10/09 07:40:23;;;;;;;17.17;9.80;;;;;;;;;;5114127;28;20043;-62
2021/10/09 07:42:49;;;;;;;59.95;25.05;;;;;;;;;;5095251;28;20072;-62
2021/10/09 07:45:14;;;;;;;23.90;11.68;;;;;;;;;;5114287;28;20039;-62
2021/10/09 07:47:40;;;;;;;17.10;9.88;;;;;;;;;;5113888;28;20032;-62
2021/10/09 07:50:06;;;;;;;29.02;13.77;;;;;;;;;;5114018;28;20039;-62
2021/10/09 07:52:32;;;;;;;10.93;7.28;;;;;;;;;;5112286;28;20031;-62
2021/10/09 07:54:58;;;;;;;30.48;17.83;;;;;;;;;;5112785;28;20071;-63
2021/10/09 07:57:24;;;;;;;34.05;17.13;;;;;;;;;;5112728;28;20059;-63
2021/10/09 07:59:50;;;;;;;17.88;10.00;;;;;;;;;;5110822;28;20035;-63
2021/10/09 08:02:16;;;;;;;17.25;9.07;;;;;;;;;;5113335;28;20100;-61
2021/10/09 08:04:42;;;;;;;25.17;15.43;;;;;;;;;;5113336;28;20071;-60
2021/10/09 08:07:07;;;;;;;11.50;7.50;;;;;;;;;;5113055;28;20047;-60
2021/10/09 08:09:35;;;;;;;12.90;7.15;;;;;;;;;;5094742;28;20048;-60
2021/10/09 08:12:01;;;;;;;11.15;7.97;;;;;;;;;;5112963;28;20055;-61
2021/10/09 08:14:26;;;;;;;13.95;8.40;;;;;;;;;;5112865;28;20074;-60
2021/10/09 08:16:52;;;;;;;12.23;7.30;;;;;;;;;;5112869;28;20028;-61
2021/10/09 08:19:18;;;;;;;14.00;7.22;;;;;;;;;;5112911;28;20077;-60
2021/10/09 08:21:44;;;;;;;10.95;6.60;;;;;;;;;;5112619;28;20034;-61
2021/10/09 08:40:35;;;;;;;14.40;8.35;;;;;;;;;;5110197;28;20043;-60
2021/10/09 08:43:01;;;;;;;10.85;6.82;;;;;;;;;;5109935;28;20027;-60
2021/10/09 08:45:26;;;;;;;12.68;7.13;;;;;;;;;;5110069;28;20169;-60
2021/10/09 08:47:53;;;;;;;11.63;6.38;;;;;;;;;;5091005;28;20054;-60
2021/10/09 08:50:19;;;;;;;9.52;5.30;;;;;;;;;;5109802;28;20035;-61
2021/10/09 08:52:56;;;;;;;10.38;6.88;;;;;;;;;;5109640;28;20043;-60
2021/10/09 08:55:23;;;;;;;11.70;6.07;;;;;;;;;;5109727;28;20100;-61
2021/10/09 08:57:49;;;;;;;11.18;6.30;;;;;;;;;;5109486;28;20544;-61
2021/10/09 09:00:19;;;;;;;10.55;5.47;;;;;;;;;;5109618;28;20092;-60
2021/10/09 09:02:52;;;;;;;10.15;5.50;;;;;;;;;;5109687;28;20049;-60
2021/10/09 09:33:11;;;;;;;9.00;5.78;;;;;;;;;;5109210;28;20050;-60
2021/10/09 09:41:15;;;;;;;7.25;5.07;;;;;;;;;;5109020;28;20482;-60
2021/10/09 09:43:41;;;;;;;11.93;5.15;;;;;;;;;;5109034;28;20422;-60
2021/10/09 09:46:11;;;;;;;7.32;6.00;;;;;;;;;;5108774;28;20078;-60
2021/10/09 09:48:37;;;;;;;5.88;5.28;;;;;;;;;;5108741;28;20046;-60
2021/10/09 09:51:05;;;;;;;7.93;5.07;;;;;;;;;;5108740;28;20036;-61
2021/10/09 09:53:31;;;;;;;10.07;6.07;;;;;;;;;;5108719;28;20152;-61
2021/10/09 09:55:56;;;;;;;9.70;5.15;;;;;;;;;;5108893;28;20472;-61
2021/10/09 09:58:24;;;;;;;10.48;6.05;;;;;;;;;;5108366;28;20031;-60
2021/10/09 10:00:52;;;;;;;7.10;4.50;;;;;;;;;;5108723;28;20112;-61
2021/10/09 10:03:22;;;;;;;7.90;5.35;;;;;;;;;;5108750;28;20051;-60
2021/10/09 10:05:48;;;;;;;6.30;4.80;;;;;;;;;;5108685;28;20078;-60
2021/10/09 10:08:14;;;;;;;10.15;5.10;;;;;;;;;;5108050;28;20123;-60
2021/10/09 10:10:39;;;;;;;12.50;5.68;;;;;;;;;;5108500;28;20039;-60
2021/10/09 10:13:05;;;;;;;17.27;6.40;;;;;;;;;;5108136;28;20024;-60
2021/10/09 10:15:31;;;;;;;8.93;5.28;;;;;;;;;;5109846;28;20475;-60
2021/10/09 10:17:57;;;;;;;7.07;4.78;;;;;;;;;;5110570;28;20027;-60
2021/10/09 10:20:43;;;;;;;5.55;4.10;;;;;;;;;;5110199;28;20032;-60
2021/10/09 10:23:09;;;;;;;5.07;4.13;;;;;;;;;;5110670;28;20137;-60
2021/10/09 10:25:35;;;;;;;7.45;4.25;;;;;;;;;;5110455;28;20386;-60
2021/10/09 10:28:02;;;;;;;10.48;4.57;;;;;;;;;;5092241;28;20047;-61
2021/10/09 10:30:29;;;;;;;9.82;5.20;;;;;;;;;;5107686;28;20051;-60
2021/10/09 10:32:56;;;;;;;6.22;4.32;;;;;;;;;;5116761;28;20059;-60
2021/10/09 10:35:34;;;;;;;6.88;4.60;;;;;;;;;;5118031;28;20027;-64
2021/10/09 10:38:03;;;;;;;15.52;5.95;;;;;;;;;;5119770;28;20048;-60
2021/10/09 10:40:47;;;;;;;7.40;4.05;;;;;;;;;;5115907;28;20235;-60
2021/10/09 10:43:46;;;;;;;12.43;5.82;;;;;;;;;;5116539;28;20039;-60
2021/10/09 10:46:34;;;;;;;7.47;4.00;;;;;;;;;;5125553;28;20886;-60
2021/10/09 10:51:34;;;;;;;10.33;4.80;;;;;;;;;;5130965;28;20039;-60
2021/10/09 10:56:59;;;;;;;7.63;4.70;;;;;;;;;;5130629;28;20039;-60
2021/10/09 10:59:34;;;;;;;9.93;4.65;;;;;;;;;;5130818;28;20475;-60
2021/10/09 11:02:13;;;;;;;6.50;3.90;;;;;;;;;;5130670;28;20035;-60
2021/10/09 11:04:42;;;;;;;13.95;6.18;;;;;;;;;;5095005;28;20469;-60
2021/10/09 11:07:08;;;;;;;5.23;4.23;;;;;;;;;;5130463;28;20031;-61
2021/10/09 11:09:36;;;;;;;6.20;4.25;;;;;;;;;;5130188;28;20531;-60
2021/10/09 11:12:01;;;;;;;18.00;5.78;;;;;;;;;;5130464;28;20038;-60
2021/10/09 11:14:27;;;;;;;10.07;4.63;;;;;;;;;;5130118;28;20031;-60
2021/10/09 11:17:03;;;;;;;5.05;4.10;;;;;;;;;;5111730;28;20023;-61
2021/10/09 11:19:41;;;;;;;10.85;5.63;;;;;;;;;;5130712;28;20088;-60
2021/10/09 11:22:06;;;;;;;7.20;4.57;;;;;;;;;;5130319;28;20035;-61
2021/10/09 11:24:39;;;;;;;7.68;4.38;;;;;;;;;;5125264;28;20506;-60
2021/10/09 11:27:04;;;;;;;8.00;4.60;;;;;;;;;;5098639;27;20051;-61
2021/10/09 11:29:30;;;;;;;5.75;4.22;;;;;;;;;;5132141;27;20112;-61
2021/10/09 11:32:03;;;;;;;9.15;4.85;;;;;;;;;;5133848;27;20092;-60
2021/10/09 11:34:29;;;;;;;10.55;5.05;;;;;;;;;;5134177;27;20064;-60
2021/10/09 11:36:54;;;;;;;6.82;4.40;;;;;;;;;;5134245;27;20031;-60
2021/10/09 11:39:24;;;;;;;9.63;4.75;;;;;;;;;;5134200;27;20042;-60
2021/10/09 11:42:10;;;;;;;10.40;4.97;;;;;;;;;;5134043;27;20111;-60
2021/10/09 11:44:41;;;;;;;4.60;3.50;;;;;;;;;;5133976;27;20047;-60
2021/10/09 11:55:20;;;;;;;8.80;4.72;;;;;;;;;;5113972;28;20118;-62
2021/10/09 11:57:46;;;;;;;4.95;4.45;;;;;;;;;;5114731;28;20055;-62
2021/10/09 12:00:27;;;;;;;8.43;5.78;;;;;;;;;;5114311;28;20023;-63
2021/10/09 12:02:53;;;;;;;;;;;;;;;;;;5114938;28;20035;-62
2021/10/09 12:05:19;;;;;;;8.65;4.68;;;;;;;;;;5113295;28;19908;-62
2021/10/09 12:08:03;;;;;;;5.20;3.85;;;;;;;;;;5112741;28;20402;-62
2021/10/09 12:10:29;;;;;;;7.53;4.07;;;;;;;;;;5115383;27;20042;-62
2021/10/09 12:13:04;;;;;;;5.43;4.30;;;;;;;;;;5116787;27;20036;-63
2021/10/09 12:15:30;;;;;;;4.85;2.97;;;;;;;;;;5093206;28;20777;-62
2021/10/09 12:17:59;;;;;;;8.45;4.60;;;;;;;;;;5125686;27;20042;-62
2021/10/09 12:20:29;;;;;;;5.93;4.15;;;;;;;;;;5117502;27;20048;-62
2021/10/09 12:22:57;;;;;;;8.93;4.28;;;;;;;;;;5113477;28;20123;-62
2021/10/09 12:25:26;;;;;;;6.90;4.25;;;;;;;;;;5111956;27;20030;-62
2021/10/09 12:27:56;;;;;;;9.50;5.45;;;;;;;;;;5114319;27;20027;-62
2021/10/09 12:30:21;;;;;;;9.40;4.77;;;;;;;;;;5127987;27;20390;-62
2021/10/09 12:32:48;;;;;;;8.85;4.40;;;;;;;;;;5134149;27;20288;-62
2021/10/09 12:35:18;;;;;;;13.13;7.70;;;;;;;;;;5134138;27;20415;-62
2021/10/09 12:37:53;;;;;;;11.10;5.93;;;;;;;;;;5133839;27;20092;-62
2021/10/09 12:40:18;;;;;;;11.65;6.35;;;;;;;;;;5133440;27;20289;-62
2021/10/09 12:42:48;;;;;;;12.10;6.38;;;;;;;;;;5134177;27;20112;-62
2021/10/09 12:45:15;;;;;;;6.00;4.40;;;;;;;;;;5134287;27;20076;-62
2021/10/09 12:47:44;;;;;;;6.97;4.50;;;;;;;;;;5134247;27;20343;-62
2021/10/09 12:50:10;;;;;;;5.43;3.72;;;;;;;;;;5133303;27;20529;-62
2021/10/09 12:52:35;;;;;;;12.35;6.60;;;;;;;;;;5133846;27;20062;-62
2021/10/09 12:55:03;;;;;;;7.57;4.60;;;;;;;;;;5113063;27;20038;-63
2021/10/09 12:57:31;;;;;;;4.82;4.15;;;;;;;;;;5111820;28;20084;-63
2021/10/09 12:59:58;;;;;;;7.93;5.15;;;;;;;;;;5115562;27;20467;-62
2021/10/09 13:02:23;;;;;;;72.35;40.50;;;;;;;;;;5120815;27;20023;-63
2021/10/09 13:04:48;;;;;;;157.95;66.13;;;;;;;;;;5121981;27;20157;-63
2021/10/09 13:07:14;;;;;;;18.73;12.55;;;;;;;;;;5122186;27;20027;-63
2021/10/09 13:09:40;;;;;;;35.53;18.63;;;;;;;;;;5119886;27;20032;-63
2021/10/09 13:12:10;;;;;;;17.58;9.70;;;;;;;;;;5120224;27;20363;-63
2021/10/09 13:14:35;;;;;;;14.18;8.85;;;;;;;;;;5116929;27;20042;-63
2021/10/09 13:17:01;;;;;;;8.35;5.25;;;;;;;;;;5132331;27;20015;-63
2021/10/09 13:19:27;;;;;;;11.57;6.60;;;;;;;;;;5111437;28;20486;-63
2021/10/09 13:21:52;;;;;;;9.55;6.30;;;;;;;;;;5112288;28;20058;-63
2021/10/09 13:24:18;;;;;;;13.13;7.13;;;;;;;;;;5113011;28;20546;-63
2021/10/09 13:26:43;;;;;;;12.13;6.35;;;;;;;;;;5112676;28;20026;-63
2021/10/09 13:29:09;;;;;;;19.33;10.48;;;;;;;;;;5112036;28;20074;-62
2021/10/09 13:31:34;;;;;;;18.10;9.80;;;;;;;;;;5112954;28;20044;-63
2021/10/09 13:34:02;;;;;;;13.68;6.50;;;;;;;;;;5113386;28;20032;-62
2021/10/09 13:36:29;;;;;;;28.50;11.15;;;;;;;;;;5112887;28;20118;-63
2021/10/09 13:38:55;;;;;;;18.42;8.50;;;;;;;;;;5113458;28;20036;-63
2021/10/09 13:41:21;;;;;;;14.60;7.63;;;;;;;;;;5112884;28;20039;-63
2021/10/09 13:43:47;;;;;;;16.98;8.40;;;;;;;;;;5112826;28;20043;-63
2021/10/09 13:46:13;;;;;;;48.13;19.77;;;;;;;;;;5112834;28;20027;-63
2021/10/09 13:48:42;;;;;;;11.23;5.43;;;;;;;;;;5112713;28;20059;-64
2021/10/09 13:51:12;;;;;;;27.30;12.27;;;;;;;;;;5111905;28;20475;-64
2021/10/09 13:53:39;;;;;;;11.00;5.15;;;;;;;;;;5110680;28;20110;-63
2021/10/09 13:56:04;;;;;;;29.40;13.68;;;;;;;;;;5093387;28;20443;-63
2021/10/09 13:58:30;;;;;;;33.28;12.27;;;;;;;;;;5112311;28;20035;-63
2021/10/09 14:00:55;;;;;;;6.85;4.70;;;;;;;;;;5112062;28;20065;-63
2021/10/09 14:03:21;;;;;;;24.27;11.98;;;;;;;;;;5111858;28;20063;-62
2021/10/09 14:05:47;;;;;;;16.38;8.68;;;;;;;;;;5112271;28;20059;-63
2021/10/09 14:08:13;;;;;;;12.55;6.45;;;;;;;;;;5111744;28;20032;-61
2021/10/09 14:10:39;;;;;;;22.88;10.57;;;;;;;;;;5111977;28;20841;-62
2021/10/09 14:13:07;;;;;;;24.42;13.98;;;;;;;;;;5111955;28;20763;-64
2021/10/09 14:15:32;;;;;;;9.82;6.65;;;;;;;;;;5112271;28;20028;-63
2021/10/09 14:17:59;;;;;;;8.30;5.97;;;;;;;;;;5111848;28;20038;-62
2021/10/09 14:20:25;;;;;;;12.05;7.10;;;;;;;;;;5112085;28;20015;-62
2021/10/09 14:22:50;;;;;;;38.00;19.27;;;;;;;;;;5111416;28;20407;-63
2021/10/09 14:25:16;;;;;;;27.08;12.25;;;;;;;;;;5110637;28;20718;-63
2021/10/09 14:27:42;;;;;;;8.10;6.22;;;;;;;;;;5111063;28;20089;-63
2021/10/09 14:30:09;;;;;;;39.25;29.38;;;;;;;;;;5111481;28;20052;-63
2021/10/09 14:32:36;;;;;;;19.02;9.77;;;;;;;;;;5119428;28;20356;-63
2021/10/09 14:35:02;;;;;;;10.95;7.88;;;;;;;;;;5114867;28;20116;-63
2021/10/09 14:37:27;;;;;;;15.73;8.93;;;;;;;;;;5117651;28;20062;-63
2021/10/09 14:39:53;;;;;;;8.18;6.47;;;;;;;;;;5120230;28;20107;-63
2021/10/09 14:42:20;;;;;;;15.73;8.73;;;;;;;;;;5118474;28;20050;-63
2021/10/09 14:44:46;;;;;;;12.05;6.88;;;;;;;;;;5119564;28;20427;-63
2021/10/09 14:50:16;;;;;;;49.97;19.67;;;;;;;;;;5120335;28;20051;-63
2021/10/09 14:52:56;;;;;;;28.90;11.98;;;;;;;;;;5116876;28;20047;-63
2021/10/09 15:19:45;;;;;;;13.15;7.80;;;;;;;;;;5110581;28;20027;-63
2021/10/09 15:22:11;;;;;;;11.68;8.15;;;;;;;;;;5113230;28;20039;-63
2021/10/09 15:24:37;;;;;;;225.48;108.03;;;;;;;;;;5114025;28;20027;-63
2021/10/09 15:27:03;;;;;;;23.95;13.90;;;;;;;;;;5114978;28;20065;-62
2021/10/09 15:29:29;;;;;;;56.05;20.70;;;;;;;;;;5114701;28;20131;-62
2021/10/09 15:31:55;;;;;;;88.07;42.35;;;;;;;;;;5115482;28;20122;-63
2021/10/09 15:34:22;;;;;;;109.75;37.33;;;;;;;;;;5115582;28;20122;-64
2021/10/09 15:36:49;;;;;;;16.50;8.65;;;;;;;;;;5115529;28;20020;-64
2021/10/09 15:39:15;;;;;;;42.05;18.95;;;;;;;;;;5121208;27;20108;-64
2021/10/09 15:41:40;;;;;;;78.68;27.88;;;;;;;;;;5124433;27;20510;-64
2021/10/09 15:44:07;;;;;;;16.90;8.95;;;;;;;;;;5115773;27;20033;-64
2021/10/09 15:46:33;;;;;;;19.42;10.73;;;;;;;;;;5127106;27;20051;-64
2021/10/09 15:48:58;;;;;;;57.33;17.63;;;;;;;;;;5124961;27;20074;-64
2021/10/09 15:51:24;;;;;;;19.23;8.70;;;;;;;;;;5121355;27;20081;-64
2021/10/09 15:53:49;;;;;;;22.20;12.60;;;;;;;;;;5119098;27;20032;-64
2021/10/09 15:56:16;;;;;;;24.30;11.10;;;;;;;;;;5114815;28;20020;-64
2021/10/09 15:58:42;;;;;;;290.05;98.65;;;;;;;;;;5114625;28;20135;-64
2021/10/09 16:01:08;;;;;;;75.78;30.00;;;;;;;;;;5102888;27;20107;-64
2021/10/09 16:03:34;;;;;;;91.40;32.88;;;;;;;;;;5114163;28;20035;-64
2021/10/09 16:05:59;;;;;;;53.30;27.60;;;;;;;;;;5114966;28;20035;-64
2021/10/09 16:08:25;;;;;;;155.82;58.17;;;;;;;;;;5114773;28;20096;-64
2021/10/09 16:10:51;;;;;;;70.15;34.83;;;;;;;;;;5114690;28;20119;-64
2021/10/09 16:13:21;;;;;;;172.13;46.67;;;;;;;;;;5112724;28;20081;-64
2021/10/09 16:15:49;;;;;;;214.25;56.90;;;;;;;;;;5113095;28;20059;-64
2021/10/09 16:18:14;;;;;;;85.43;31.75;;;;;;;;;;5112836;28;20703;-64
2021/10/09 16:20:40;;;;;;;175.02;40.80;;;;;;;;;;5113004;28;20051;-63
2021/10/09 16:23:06;;;;;;;153.77;59.88;;;;;;;;;;5114175;28;20028;-64
2021/10/09 16:25:31;;;;;;;635.95;220.05;;;;;;;;;;5114366;28;20494;-64
2021/10/09 16:27:57;;;;;;;334.95;101.95;;;;;;;;;;5114655;28;20035;-64
2021/10/09 16:30:22;;;;;;;621.40;354.15;;;;;;;;;;5114071;28;20040;-64
2021/10/09 16:32:48;;;;;;;208.43;104.47;;;;;;;;;;5094751;28;20032;-64
2021/10/09 16:35:13;;;;;;;255.60;107.97;;;;;;;;;;5116493;27;20035;-64
2021/10/09 16:37:39;;;;;;;219.38;91.38;;;;;;;;;;5133969;27;20027;-64
2021/10/09 16:40:06;;;;;;;69.07;34.53;;;;;;;;;;5134943;27;20035;-64
2021/10/09 16:42:34;;;;;;;254.35;95.72;;;;;;;;;;5134878;27;20471;-64
2021/10/09 16:45:02;;;;;;;109.60;44.63;;;;;;;;;;5129338;27;20047;-64
2021/10/09 16:47:27;;;;;;;66.75;28.10;;;;;;;;;;5124010;27;20461;-64
2021/10/09 16:49:55;;;;;;;76.55;43.35;;;;;;;;;;5120895;27;20119;-64
2021/10/09 16:52:21;;;;;;;61.15;29.92;;;;;;;;;;5119112;27;20023;-64
2021/10/09 16:54:49;;;;;;;66.45;26.42;;;;;;;;;;5119243;27;20035;-64
2021/10/09 16:57:15;;;;;;;73.30;30.55;;;;;;;;;;5094014;27;20031;-61
2021/10/09 16:59:40;;;;;;;69.80;31.67;;;;;;;;;;5126610;27;20516;-61
2021/10/09 17:02:06;;;;;;;71.72;32.08;;;;;;;;;;5128238;27;20035;-62
2021/10/09 17:04:32;;;;;;;36.28;26.60;;;;;;;;;;5127455;27;20127;-61
2021/10/09 17:06:57;;;;;;;29.35;16.75;;;;;;;;;;5127527;27;20058;-61
2021/10/09 17:09:23;;;;;;;182.50;70.47;;;;;;;;;;5127289;27;20043;-61
2021/10/09 17:11:48;;;;;;;34.95;20.38;;;;;;;;;;5127347;27;20087;-61
2021/10/09 17:14:14;;;;;;;71.55;28.67;;;;;;;;;;5128584;27;20043;-61
2021/10/09 17:16:39;;;;;;;35.78;18.27;;;;;;;;;;5129647;27;20027;-61
2021/10/09 17:19:06;;;;;;;56.22;25.77;;;;;;;;;;5113487;27;20031;-60
2021/10/09 17:21:32;;;;;;;108.70;39.38;;;;;;;;;;5107427;28;20031;-61
2021/10/09 17:23:58;;;;;;;43.80;20.98;;;;;;;;;;5089930;28;20044;-61
2021/10/09 17:26:24;;;;;;;53.63;22.65;;;;;;;;;;5108924;28;20039;-61
2021/10/09 17:28:49;;;;;;;48.85;21.92;;;;;;;;;;5109295;28;20040;-61
2021/10/09 17:31:14;;;;;;;26.85;17.75;;;;;;;;;;5109187;28;20126;-61